Berlin — 9HA2295 — position and weather

sailwx.info

Track history (hours):
 
Tides and Currents Weather Stations Pressure Air Temp Water Temp Dewpoint Dewpoint Depression Visibility Wind Speed Wind Dir Waves Ship Positions

Berlin

Last reported at 2016-Jul-25 18:32 UTC. Time now 2016-Jul-27 05:41 UTC.
Position N 59°24' W 003°43'.

Length 140 m; draft 5.1 m.

Type: Ship. MMSI: 248277000.

Date/timePositionNaut miles runAvg speedWind from/ knotsBaromVisibWave heightAir tempDewpointWater temp
2016-Jul-25 18:32N 59°24' W 003°43'2914.7
2016-Jul-25 16:33N 59°11' W 002°52'10 9.9
2016-Jul-25 15:33N 59°01' W 002°52'3 3.4
2016-Jul-25 14:33N 58°60' W 002°58'0 0.0
2016-Jul-25 13:33N 58°60' W 002°58'0 0.0
2016-Jul-25 12:33N 58°60' W 002°58'0 0.0
2016-Jul-25 11:33N 58°60' W 002°58'0 0.0
2016-Jul-25 10:27N 58°60' W 002°58'0 0.0
2016-Jul-25 09:33N 58°60' W 002°58'0 0.0
2016-Jul-25 08:33N 58°60' W 002°58'0 0.0
2016-Jul-25 07:33N 58°60' W 002°58'0 0.1
2016-Jul-25 06:33N 59°00' W 002°58'8 7.8
2016-Jul-25 05:33N 58°60' W 002°43'39613.6
2016-Jul-24 00:25N 54°38' E 006°20'1214.0
2016-Jul-23 23:33N 54°31' E 006°38'1413.7
2016-Jul-23 22:33N 54°24' E 006°58'1413.9
2016-Jul-23 21:33N 54°16' E 007°17'1413.8
2016-Jul-23 20:33N 54°06' E 007°34'1414.2
2016-Jul-23 19:33N 53°53' E 007°45'1313.2
2016-Jul-23 18:34N 53°49' E 008°06'1716.8
2016-Jul-23 17:34N 53°38' E 008°27'6 5.5
2016-Jul-23 16:32N 53°34' E 008°33'0 0.0
2016-Jul-23 15:32N 53°34' E 008°33'0 0.0
2016-Jul-23 14:32N 53°34' E 008°33'0 0.0
2016-Jul-23 13:32N 53°34' E 008°33'0 0.0
2016-Jul-23 12:20N 53°34' E 008°33'0 0.0
2016-Jul-23 11:32N 53°34' E 008°33'0 0.0
2016-Jul-23 10:32N 53°34' E 008°33'0 0.0
2016-Jul-23 09:23N 53°34' E 008°33'0 0.0
2016-Jul-23 08:32N 53°34' E 008°33'0 0.0
2016-Jul-23 07:29N 53°34' E 008°33'0 0.0
2016-Jul-23 06:32N 53°34' E 008°33'0 0.0
2016-Jul-23 04:32N 53°34' E 008°33'4 4.1
2016-Jul-23 03:33N 53°37' E 008°29'1414.0
2016-Jul-23 02:33N 53°46' E 008°11'1313.3
2016-Jul-23 01:33N 53°52' E 007°51'1110.9
2016-Jul-23 00:33N 53°59' E 007°37'1212.4
2016-Jul-22 23:33N 54°08' E 007°53'2 2.2
2016-Jul-22 22:33N 54°10' E 007°55'0 0.0
2016-Jul-22 21:33N 54°10' E 007°55'0 0.0
2016-Jul-22 20:33N 54°10' E 007°55'0 0.0
2016-Jul-22 19:33N 54°10' E 007°55'0 0.0
2016-Jul-22 18:33N 54°10' E 007°55'0 0.0
2016-Jul-22 17:33N 54°10' E 007°55'0 0.0
2016-Jul-22 16:33N 54°10' E 007°55'0 0.0
2016-Jul-22 15:33N 54°10' E 007°55'0 0.1
2016-Jul-22 14:33N 54°10' E 007°55'4 3.6
2016-Jul-22 13:34N 54°11' E 008°00'1413.7
2016-Jul-22 12:33N 54°23' E 008°11'1312.9
2016-Jul-22 11:33N 54°34' E 008°21'4 3.7
2016-Jul-22 10:32N 54°37' E 008°25'0 0.1
2016-Jul-22 09:23N 54°37' E 008°25'0 0.0
2016-Jul-22 08:26N 54°37' E 008°25'0 0.0
2016-Jul-22 07:23N 54°37' E 008°25'0 0.0
2016-Jul-22 04:32N 54°37' E 008°25'0 0.0
2016-Jul-22 03:32N 54°37' E 008°25'0 0.0
2016-Jul-22 02:33N 54°37' E 008°25'5 5.5
2016-Jul-22 01:33N 54°33' E 008°20'10 9.5
2016-Jul-22 00:33N 54°25' E 008°09'1211.6
2016-Jul-21 23:33N 54°18' E 007°54'9 9.2
2016-Jul-21 22:34N 54°14' E 007°40'4 3.5
2016-Jul-21 21:33N 54°17' E 007°42'5 5.1
2016-Jul-21 20:33N 54°16' E 007°34'6 6.5
2016-Jul-21 19:33N 54°21' E 007°26'7 6.7
2016-Jul-21 18:33N 54°14' E 007°23'1010.0
2016-Jul-21 17:33N 54°10' E 007°39'1110.6
2016-Jul-21 16:33N 54°05' E 007°54'1212.2
2016-Jul-21 15:33N 54°00' E 008°14'1615.6
2016-Jul-21 14:33N 53°56' E 008°39'1211.5
2016-Jul-21 13:34N 53°51' E 008°56'8 7.5
2016-Jul-21 12:31N 53°54' E 009°09'5 4.9
2016-Jul-21 11:33N 53°57' E 009°14'8 8.0
2016-Jul-21 10:33N 54°05' E 009°19'23 7.7
2016-Jul-21 07:33N 54°21' E 009°47'7 7.0
2016-Jul-21 06:33N 54°21' E 009°59'6 5.9
2016-Jul-21 05:33N 54°22' E 010°08'1 1.3
2016-Jul-21 04:33N 54°22' E 010°11'8 7.8
2016-Jul-21 03:33N 54°29' E 010°16'1111.2
2016-Jul-21 02:33N 54°35' E 010°33'1010.1
2016-Jul-21 01:33N 54°35' E 010°51'1110.7
2016-Jul-21 00:33N 54°36' E 011°09'1111.0
2016-Jul-20 23:33N 54°32' E 011°26'1111.1
2016-Jul-20 22:33N 54°27' E 011°43'1111.2
2016-Jul-20 21:33N 54°20' E 011°59'10 9.9
2016-Jul-20 20:33N 54°11' E 012°05'0 0.4
2016-Jul-20 19:27N 54°11' E 012°06'0 0.0
2016-Jul-20 18:33N 54°11' E 012°06'0 0.0
2016-Jul-20 17:27N 54°11' E 012°06'0 0.0
2016-Jul-20 16:15N 54°11' E 012°06'0 0.0
2016-Jul-20 15:33N 54°11' E 012°06'0 0.0
2016-Jul-20 13:09N 54°11' E 012°06'0 0.0
2016-Jul-20 12:33N 54°11' E 012°06'0 0.0
2016-Jul-20 11:33N 54°11' E 012°06'0 0.0
2016-Jul-20 10:30N 54°11' E 012°06'0 0.0
2016-Jul-20 09:30N 54°11' E 012°06'0 0.0
2016-Jul-20 08:27N 54°11' E 012°06'0 0.0
2016-Jul-20 07:33N 54°11' E 012°06'0 0.0
2016-Jul-20 06:06N 54°11' E 012°06'0 0.1
2016-Jul-20 05:31N 54°10' E 012°06'7 7.0
2016-Jul-20 04:33N 54°17' E 012°01'9 9.3
2016-Jul-20 03:34N 54°26' E 012°01'1212.3
2016-Jul-20 02:33N 54°36' E 012°14'1513.7
2016-Jul-20 01:28N 54°44' E 012°35'1714.0
2016-Jul-20 00:15N 54°47' E 013°04'1014.0
2016-Jul-19 23:34N 54°46' E 013°21'1212.1
2016-Jul-19 22:33N 54°40' E 013°39'1413.9
2016-Jul-19 21:32N 54°28' E 013°51'2813.6
2016-Jul-19 19:30N 54°03' E 014°13'9 9.6
2016-Jul-19 18:33N 53°54' E 014°16'0 0.1
2016-Jul-19 17:32N 53°54' E 014°16'0 0.0
2016-Jul-19 16:32N 53°54' E 014°16'0 0.0
2016-Jul-19 15:32N 53°54' E 014°16'0 0.0
2016-Jul-19 14:32N 53°54' E 014°16'0 0.0
2016-Jul-19 13:32N 53°54' E 014°16'0 0.0
2016-Jul-19 12:32N 53°54' E 014°16'0 0.0
2016-Jul-19 11:32N 53°54' E 014°16'0 0.0
2016-Jul-19 10:32N 53°54' E 014°16'0 0.0
2016-Jul-19 09:34N 53°54' E 014°16'6 6.3
2016-Jul-19 08:34N 54°01' E 014°15'1413.4
2016-Jul-19 07:33N 54°14' E 014°11'13912.6
2016-Jul-18 20:30N 54°57' E 017°58'1314.0
2016-Jul-18 19:34N 54°56' E 018°21'1313.5
2016-Jul-18 18:33N 54°50' E 018°42'1413.5
2016-Jul-18 17:33N 54°39' E 018°57'1212.2
2016-Jul-18 16:33N 54°32' E 018°40'4 4.1
2016-Jul-18 15:33N 54°32' E 018°33'0 0.0
2016-Jul-18 14:33N 54°32' E 018°33'0 0.0
2016-Jul-18 13:33N 54°32' E 018°33'0 0.0
2016-Jul-18 12:33N 54°32' E 018°33'0 0.0
2016-Jul-18 11:33N 54°32' E 018°33'0 0.0
2016-Jul-18 10:33N 54°32' E 018°33'0 0.0
2016-Jul-18 09:33N 54°32' E 018°33'0 0.0
2016-Jul-18 08:33N 54°32' E 018°33'0 0.0
2016-Jul-18 07:33N 54°32' E 018°33'0 0.0
2016-Jul-18 06:33N 54°32' E 018°33'0 0.0
2016-Jul-18 05:33N 54°32' E 018°33'0 0.1
2016-Jul-18 04:33N 54°32' E 018°33'9 9.1
2016-Jul-18 03:33N 54°33' E 018°49'1414.2
2016-Jul-18 02:33N 54°45' E 019°03'1413.8
2016-Jul-18 01:33N 54°56' E 019°18'  
Track history (hours):
 
Tides and Currents Weather Stations Pressure Air Temp Water Temp Dewpoint Dewpoint Depression Visibility Wind Speed Wind Dir Waves Ship Positions

Berlin

Last reported at 2016-Jul-25 18:32 UTC. Time now 2016-Jul-27 05:41 UTC.
Position N 59°24' W 003°43'.

Length 140 m; draft 5.1 m.

Type: Ship. MMSI: 248277000.

Date/timePositionNaut miles runAvg speedWind from/ knotsBaromVisibWave heightAir tempDewpointWater temp
2016-Jul-25 18:32N 59°24' W 003°43'2914.7
2016-Jul-25 16:33N 59°11' W 002°52'10 9.9
2016-Jul-25 15:33N 59°01' W 002°52'3 3.4
2016-Jul-25 14:33N 58°60' W 002°58'0 0.0
2016-Jul-25 13:33N 58°60' W 002°58'0 0.0
2016-Jul-25 12:33N 58°60' W 002°58'0 0.0
2016-Jul-25 11:33N 58°60' W 002°58'0 0.0
2016-Jul-25 10:27N 58°60' W 002°58'0 0.0
2016-Jul-25 09:33N 58°60' W 002°58'0 0.0
2016-Jul-25 08:33N 58°60' W 002°58'0 0.0
2016-Jul-25 07:33N 58°60' W 002°58'0 0.1
2016-Jul-25 06:33N 59°00' W 002°58'8 7.8
2016-Jul-25 05:33N 58°60' W 002°43'39613.6
2016-Jul-24 00:25N 54°38' E 006°20'1214.0
2016-Jul-23 23:33N 54°31' E 006°38'1413.7
2016-Jul-23 22:33N 54°24' E 006°58'1413.9
2016-Jul-23 21:33N 54°16' E 007°17'1413.8
2016-Jul-23 20:33N 54°06' E 007°34'1414.2
2016-Jul-23 19:33N 53°53' E 007°45'1313.2
2016-Jul-23 18:34N 53°49' E 008°06'1716.8
2016-Jul-23 17:34N 53°38' E 008°27'6 5.5
2016-Jul-23 16:32N 53°34' E 008°33'0 0.0
2016-Jul-23 15:32N 53°34' E 008°33'0 0.0
2016-Jul-23 14:32N 53°34' E 008°33'0 0.0
2016-Jul-23 13:32N 53°34' E 008°33'0 0.0
2016-Jul-23 12:20N 53°34' E 008°33'0 0.0
2016-Jul-23 11:32N 53°34' E 008°33'0 0.0
2016-Jul-23 10:32N 53°34' E 008°33'0 0.0
2016-Jul-23 09:23N 53°34' E 008°33'0 0.0
2016-Jul-23 08:32N 53°34' E 008°33'0 0.0
2016-Jul-23 07:29N 53°34' E 008°33'0 0.0
2016-Jul-23 06:32N 53°34' E 008°33'0 0.0
2016-Jul-23 04:32N 53°34' E 008°33'4 4.1
2016-Jul-23 03:33N 53°37' E 008°29'1414.0
2016-Jul-23 02:33N 53°46' E 008°11'1313.3
2016-Jul-23 01:33N 53°52' E 007°51'1110.9
2016-Jul-23 00:33N 53°59' E 007°37'1212.4
2016-Jul-22 23:33N 54°08' E 007°53'2 2.2
2016-Jul-22 22:33N 54°10' E 007°55'0 0.0
2016-Jul-22 21:33N 54°10' E 007°55'0 0.0
2016-Jul-22 20:33N 54°10' E 007°55'0 0.0
2016-Jul-22 19:33N 54°10' E 007°55'0 0.0
2016-Jul-22 18:33N 54°10' E 007°55'0 0.0
2016-Jul-22 17:33N 54°10' E 007°55'0 0.0
2016-Jul-22 16:33N 54°10' E 007°55'0 0.0
2016-Jul-22 15:33N 54°10' E 007°55'0 0.1
2016-Jul-22 14:33N 54°10' E 007°55'4 3.6
2016-Jul-22 13:34N 54°11' E 008°00'1413.7
2016-Jul-22 12:33N 54°23' E 008°11'1312.9
2016-Jul-22 11:33N 54°34' E 008°21'4 3.7
2016-Jul-22 10:32N 54°37' E 008°25'0 0.1
2016-Jul-22 09:23N 54°37' E 008°25'0 0.0
2016-Jul-22 08:26N 54°37' E 008°25'0 0.0
2016-Jul-22 07:23N 54°37' E 008°25'0 0.0
2016-Jul-22 04:32N 54°37' E 008°25'0 0.0
2016-Jul-22 03:32N 54°37' E 008°25'0 0.0
2016-Jul-22 02:33N 54°37' E 008°25'5 5.5
2016-Jul-22 01:33N 54°33' E 008°20'10 9.5
2016-Jul-22 00:33N 54°25' E 008°09'1211.6
2016-Jul-21 23:33N 54°18' E 007°54'9 9.2
2016-Jul-21 22:34N 54°14' E 007°40'4 3.5
2016-Jul-21 21:33N 54°17' E 007°42'5 5.1
2016-Jul-21 20:33N 54°16' E 007°34'6 6.5
2016-Jul-21 19:33N 54°21' E 007°26'7 6.7
2016-Jul-21 18:33N 54°14' E 007°23'1010.0
2016-Jul-21 17:33N 54°10' E 007°39'1110.6
2016-Jul-21 16:33N 54°05' E 007°54'1212.2
2016-Jul-21 15:33N 54°00' E 008°14'1615.6
2016-Jul-21 14:33N 53°56' E 008°39'1211.5
2016-Jul-21 13:34N 53°51' E 008°56'8 7.5
2016-Jul-21 12:31N 53°54' E 009°09'5 4.9
2016-Jul-21 11:33N 53°57' E 009°14'8 8.0
2016-Jul-21 10:33N 54°05' E 009°19'23 7.7
2016-Jul-21 07:33N 54°21' E 009°47'7 7.0
2016-Jul-21 06:33N 54°21' E 009°59'6 5.9
2016-Jul-21 05:33N 54°22' E 010°08'1 1.3
2016-Jul-21 04:33N 54°22' E 010°11'8 7.8
2016-Jul-21 03:33N 54°29' E 010°16'1111.2
2016-Jul-21 02:33N 54°35' E 010°33'1010.1
2016-Jul-21 01:33N 54°35' E 010°51'1110.7
2016-Jul-21 00:33N 54°36' E 011°09'1111.0
2016-Jul-20 23:33N 54°32' E 011°26'1111.1
2016-Jul-20 22:33N 54°27' E 011°43'1111.2
2016-Jul-20 21:33N 54°20' E 011°59'10 9.9
2016-Jul-20 20:33N 54°11' E 012°05'0 0.4
2016-Jul-20 19:27N 54°11' E 012°06'0 0.0
2016-Jul-20 18:33N 54°11' E 012°06'0 0.0
2016-Jul-20 17:27N 54°11' E 012°06'0 0.0
2016-Jul-20 16:15N 54°11' E 012°06'0 0.0
2016-Jul-20 15:33N 54°11' E 012°06'0 0.0
2016-Jul-20 13:09N 54°11' E 012°06'0 0.0
2016-Jul-20 12:33N 54°11' E 012°06'0 0.0
2016-Jul-20 11:33N 54°11' E 012°06'0 0.0
2016-Jul-20 10:30N 54°11' E 012°06'0 0.0
2016-Jul-20 09:30N 54°11' E 012°06'0 0.0
2016-Jul-20 08:27N 54°11' E 012°06'0 0.0
2016-Jul-20 07:33N 54°11' E 012°06'0 0.0
2016-Jul-20 06:06N 54°11' E 012°06'0 0.1
2016-Jul-20 05:31N 54°10' E 012°06'7 7.0
2016-Jul-20 04:33N 54°17' E 012°01'9 9.3
2016-Jul-20 03:34N 54°26' E 012°01'1212.3
2016-Jul-20 02:33N 54°36' E 012°14'1513.7
2016-Jul-20 01:28N 54°44' E 012°35'1714.0
2016-Jul-20 00:15N 54°47' E 013°04'1014.0
2016-Jul-19 23:34N 54°46' E 013°21'1212.1
2016-Jul-19 22:33N 54°40' E 013°39'1413.9
2016-Jul-19 21:32N 54°28' E 013°51'2813.6
2016-Jul-19 19:30N 54°03' E 014°13'9 9.6
2016-Jul-19 18:33N 53°54' E 014°16'0 0.1
2016-Jul-19 17:32N 53°54' E 014°16'0 0.0
2016-Jul-19 16:32N 53°54' E 014°16'0 0.0
2016-Jul-19 15:32N 53°54' E 014°16'0 0.0
2016-Jul-19 14:32N 53°54' E 014°16'0 0.0
2016-Jul-19 13:32N 53°54' E 014°16'0 0.0
2016-Jul-19 12:32N 53°54' E 014°16'0 0.0
2016-Jul-19 11:32N 53°54' E 014°16'0 0.0
2016-Jul-19 10:32N 53°54' E 014°16'0 0.0
2016-Jul-19 09:34N 53°54' E 014°16'6 6.3
2016-Jul-19 08:34N 54°01' E 014°15'1413.4
2016-Jul-19 07:33N 54°14' E 014°11'13912.6
2016-Jul-18 20:30N 54°57' E 017°58'1314.0
2016-Jul-18 19:34N 54°56' E 018°21'1313.5
2016-Jul-18 18:33N 54°50' E 018°42'1413.5
2016-Jul-18 17:33N 54°39' E 018°57'1212.2
2016-Jul-18 16:33N 54°32' E 018°40'4 4.1
2016-Jul-18 15:33N 54°32' E 018°33'0 0.0
2016-Jul-18 14:33N 54°32' E 018°33'0 0.0
2016-Jul-18 13:33N 54°32' E 018°33'0 0.0
2016-Jul-18 12:33N 54°32' E 018°33'0 0.0
2016-Jul-18 11:33N 54°32' E 018°33'0 0.0
2016-Jul-18 10:33N 54°32' E 018°33'0 0.0
2016-Jul-18 09:33N 54°32' E 018°33'0 0.0
2016-Jul-18 08:33N 54°32' E 018°33'0 0.0
2016-Jul-18 07:33N 54°32' E 018°33'0 0.0
2016-Jul-18 06:33N 54°32' E 018°33'0 0.0
2016-Jul-18 05:33N 54°32' E 018°33'0 0.1
2016-Jul-18 04:33N 54°32' E 018°33'9 9.1
2016-Jul-18 03:33N 54°33' E 018°49'1414.2
2016-Jul-18 02:33N 54°45' E 019°03'1413.8
2016-Jul-18 01:33N 54°56' E 019°18'  

Dump ship's entire track history